sensor_id;sensor_type;location;lat;lon;timestamp;P1;durP1;ratioP1;P2;durP2;ratioP2
71566;SDS011;59403;47.456;19.120;2023-05-10T00:00:38;3.62;;;2.15;;
71566;SDS011;59403;47.456;19.120;2023-05-10T00:03:05;4.03;;;2.33;;
71566;SDS011;59403;47.456;19.120;2023-05-10T00:05:32;4.35;;;2.42;;
71566;SDS011;59403;47.456;19.120;2023-05-10T00:07:59;3.85;;;2.37;;
71566;SDS011;59403;47.456;19.120;2023-05-10T00:10:26;3.78;;;2.28;;
71566;SDS011;59403;47.456;19.120;2023-05-10T00:12:53;3.60;;;2.40;;
71566;SDS011;59403;47.456;19.120;2023-05-10T00:15:21;3.97;;;2.62;;
71566;SDS011;59403;47.456;19.120;2023-05-10T00:17:48;4.05;;;2.62;;
71566;SDS011;59403;47.456;19.120;2023-05-10T00:20:15;4.03;;;2.35;;
71566;SDS011;59403;47.456;19.120;2023-05-10T00:22:42;3.92;;;2.47;;
71566;SDS011;59403;47.456;19.120;2023-05-10T00:25:10;3.97;;;2.33;;
71566;SDS011;59403;47.456;19.120;2023-05-10T00:27:36;8.20;;;2.97;;
71566;SDS011;59403;47.456;19.120;2023-05-10T00:30:04;5.57;;;2.60;;
71566;SDS011;59403;47.456;19.120;2023-05-10T00:32:33;3.72;;;2.72;;
71566;SDS011;59403;47.456;19.120;2023-05-10T00:37:28;4.70;;;2.92;;
71566;SDS011;59403;47.456;19.120;2023-05-10T00:39:55;6.28;;;2.85;;
71566;SDS011;59403;47.456;19.120;2023-05-10T00:42:22;4.60;;;2.72;;
71566;SDS011;59403;47.456;19.120;2023-05-10T00:44:49;5.50;;;2.55;;
71566;SDS011;59403;47.456;19.120;2023-05-10T00:47:16;3.62;;;2.58;;
71566;SDS011;59403;47.456;19.120;2023-05-10T00:49:45;4.85;;;2.85;;
71566;SDS011;59403;47.456;19.120;2023-05-10T00:52:12;4.03;;;3.10;;
71566;SDS011;59403;47.456;19.120;2023-05-10T00:54:40;4.40;;;2.83;;
71566;SDS011;59403;47.456;19.120;2023-05-10T00:57:07;3.90;;;3.00;;
71566;SDS011;59403;47.456;19.120;2023-05-10T00:59:34;4.85;;;2.70;;
71566;SDS011;59403;47.456;19.120;2023-05-10T01:04:38;4.85;;;3.25;;
71566;SDS011;59403;47.456;19.120;2023-05-10T01:07:08;4.43;;;2.62;;
71566;SDS011;59403;47.456;19.120;2023-05-10T01:09:36;4.68;;;2.53;;
71566;SDS011;59403;47.456;19.120;2023-05-10T01:12:05;5.37;;;2.78;;
71566;SDS011;59403;47.456;19.120;2023-05-10T01:14:33;7.35;;;2.92;;
71566;SDS011;59403;47.456;19.120;2023-05-10T01:17:01;3.62;;;2.65;;
71566;SDS011;59403;47.456;19.120;2023-05-10T01:19:29;5.75;;;3.37;;
71566;SDS011;59403;47.456;19.120;2023-05-10T01:21:58;5.50;;;2.85;;
71566;SDS011;59403;47.456;19.120;2023-05-10T01:31:08;4.53;;;2.90;;
71566;SDS011;59403;47.456;19.120;2023-05-10T01:33:56;6.50;;;3.10;;
71566;SDS011;59403;47.456;19.120;2023-05-10T01:36:28;3.67;;;2.58;;
71566;SDS011;59403;47.456;19.120;2023-05-10T01:38:59;6.37;;;3.10;;
71566;SDS011;59403;47.456;19.120;2023-05-10T01:41:33;4.65;;;2.35;;
71566;SDS011;59403;47.456;19.120;2023-05-10T01:44:09;5.70;;;3.22;;
71566;SDS011;59403;47.456;19.120;2023-05-10T01:46:42;4.93;;;3.25;;
71566;SDS011;59403;47.456;19.120;2023-05-10T01:49:11;5.07;;;3.10;;
71566;SDS011;59403;47.456;19.120;2023-05-10T01:51:47;4.97;;;3.20;;
71566;SDS011;59403;47.456;19.120;2023-05-10T01:54:20;3.80;;;2.83;;
71566;SDS011;59403;47.456;19.120;2023-05-10T01:56:50;4.40;;;3.37;;
71566;SDS011;59403;47.456;19.120;2023-05-10T01:59:22;4.20;;;2.85;;
71566;SDS011;59403;47.456;19.120;2023-05-10T02:01:54;4.72;;;2.70;;
71566;SDS011;59403;47.456;19.120;2023-05-10T02:04:25;4.28;;;2.80;;
71566;SDS011;59403;47.456;19.120;2023-05-10T02:06:54;6.87;;;2.92;;
71566;SDS011;59403;47.456;19.120;2023-05-10T02:09:22;3.97;;;2.95;;
71566;SDS011;59403;47.456;19.120;2023-05-10T02:11:51;4.57;;;2.85;;
71566;SDS011;59403;47.456;19.120;2023-05-10T02:14:20;3.92;;;3.15;;
71566;SDS011;59403;47.456;19.120;2023-05-10T02:16:49;4.22;;;3.20;;
71566;SDS011;59403;47.456;19.120;2023-05-10T02:19:17;3.97;;;2.78;;
71566;SDS011;59403;47.456;19.120;2023-05-10T02:21:47;5.65;;;3.40;;
71566;SDS011;59403;47.456;19.120;2023-05-10T02:24:17;4.45;;;2.83;;
71566;SDS011;59403;47.456;19.120;2023-05-10T02:26:45;3.80;;;3.15;;
71566;SDS011;59403;47.456;19.120;2023-05-10T02:29:16;5.37;;;2.90;;
71566;SDS011;59403;47.456;19.120;2023-05-10T02:31:43;4.85;;;3.03;;
71566;SDS011;59403;47.456;19.120;2023-05-10T02:34:11;4.95;;;3.10;;
71566;SDS011;59403;47.456;19.120;2023-05-10T02:36:39;6.03;;;3.15;;
71566;SDS011;59403;47.456;19.120;2023-05-10T02:39:09;5.57;;;2.83;;
71566;SDS011;59403;47.456;19.120;2023-05-10T02:41:38;4.97;;;2.87;;
71566;SDS011;59403;47.456;19.120;2023-05-10T02:44:07;6.45;;;3.37;;
71566;SDS011;59403;47.456;19.120;2023-05-10T02:46:35;5.62;;;3.60;;
71566;SDS011;59403;47.456;19.120;2023-05-10T02:49:03;5.35;;;3.05;;
71566;SDS011;59403;47.456;19.120;2023-05-10T02:51:31;5.12;;;2.97;;
71566;SDS011;59403;47.456;19.120;2023-05-10T02:54:01;4.65;;;3.05;;
71566;SDS011;59403;47.456;19.120;2023-05-10T02:56:39;6.82;;;3.65;;
71566;SDS011;59403;47.456;19.120;2023-05-10T02:59:11;5.43;;;3.28;;
71566;SDS011;59403;47.456;19.120;2023-05-10T03:01:38;4.43;;;3.25;;
71566;SDS011;59403;47.456;19.120;2023-05-10T03:04:05;4.20;;;3.30;;
71566;SDS011;59403;47.456;19.120;2023-05-10T03:06:32;3.97;;;2.80;;
71566;SDS011;59403;47.456;19.120;2023-05-10T03:08:59;5.25;;;3.35;;
71566;SDS011;59403;47.456;19.120;2023-05-10T03:11:32;4.70;;;3.22;;
71566;SDS011;59403;47.456;19.120;2023-05-10T03:14:16;5.15;;;3.67;;
71566;SDS011;59403;47.456;19.120;2023-05-10T03:16:52;4.28;;;3.40;;
71566;SDS011;59403;47.456;19.120;2023-05-10T03:19:26;5.07;;;3.60;;
71566;SDS011;59403;47.456;19.120;2023-05-10T03:21:57;5.30;;;3.50;;
71566;SDS011;59403;47.456;19.120;2023-05-10T03:24:29;6.57;;;3.87;;
71566;SDS011;59403;47.456;19.120;2023-05-10T03:27:00;5.70;;;3.53;;
71566;SDS011;59403;47.456;19.120;2023-05-10T03:29:27;4.80;;;3.60;;
71566;SDS011;59403;47.456;19.120;2023-05-10T03:31:57;5.72;;;3.40;;
71566;SDS011;59403;47.456;19.120;2023-05-10T03:34:24;4.57;;;3.25;;
71566;SDS011;59403;47.456;19.120;2023-05-10T03:36:51;4.82;;;2.95;;
71566;SDS011;59403;47.456;19.120;2023-05-10T03:39:18;5.45;;;3.10;;
71566;SDS011;59403;47.456;19.120;2023-05-10T03:41:46;5.47;;;3.90;;
71566;SDS011;59403;47.456;19.120;2023-05-10T03:44:14;5.10;;;3.65;;
71566;SDS011;59403;47.456;19.120;2023-05-10T03:46:41;5.20;;;3.40;;
71566;SDS011;59403;47.456;19.120;2023-05-10T03:49:08;5.10;;;4.00;;
71566;SDS011;59403;47.456;19.120;2023-05-10T03:51:35;6.28;;;4.43;;
71566;SDS011;59403;47.456;19.120;2023-05-10T03:54:01;6.47;;;3.97;;
71566;SDS011;59403;47.456;19.120;2023-05-10T03:56:28;4.90;;;3.58;;
71566;SDS011;59403;47.456;19.120;2023-05-10T03:58:55;5.43;;;3.83;;
71566;SDS011;59403;47.456;19.120;2023-05-10T04:01:24;9.50;;;4.93;;
71566;SDS011;59403;47.456;19.120;2023-05-10T04:03:50;5.28;;;4.25;;
71566;SDS011;59403;47.456;19.120;2023-05-10T04:06:17;5.78;;;3.78;;
71566;SDS011;59403;47.456;19.120;2023-05-10T04:08:44;5.93;;;3.90;;
71566;SDS011;59403;47.456;19.120;2023-05-10T04:11:11;5.78;;;4.07;;
71566;SDS011;59403;47.456;19.120;2023-05-10T04:13:39;5.82;;;4.18;;
71566;SDS011;59403;47.456;19.120;2023-05-10T04:16:06;5.37;;;3.70;;
71566;SDS011;59403;47.456;19.120;2023-05-10T04:18:34;4.80;;;3.87;;
71566;SDS011;59403;47.456;19.120;2023-05-10T04:21:01;8.63;;;4.28;;
71566;SDS011;59403;47.456;19.120;2023-05-10T04:23:28;7.55;;;4.50;;
71566;SDS011;59403;47.456;19.120;2023-05-10T04:25:58;5.47;;;4.43;;
71566;SDS011;59403;47.456;19.120;2023-05-10T04:28:26;6.72;;;4.07;;
71566;SDS011;59403;47.456;19.120;2023-05-10T04:30:53;6.25;;;4.20;;
71566;SDS011;59403;47.456;19.120;2023-05-10T04:33:19;6.25;;;4.00;;
71566;SDS011;59403;47.456;19.120;2023-05-10T04:35:48;5.68;;;3.87;;
71566;SDS011;59403;47.456;19.120;2023-05-10T04:38:15;5.70;;;4.05;;
71566;SDS011;59403;47.456;19.120;2023-05-10T04:40:42;5.57;;;4.20;;
71566;SDS011;59403;47.456;19.120;2023-05-10T04:43:08;6.45;;;4.15;;
71566;SDS011;59403;47.456;19.120;2023-05-10T04:45:35;5.57;;;4.18;;
71566;SDS011;59403;47.456;19.120;2023-05-10T04:48:02;6.20;;;4.50;;
71566;SDS011;59403;47.456;19.120;2023-05-10T04:50:29;5.68;;;4.20;;
71566;SDS011;59403;47.456;19.120;2023-05-10T04:52:58;6.00;;;4.10;;
71566;SDS011;59403;47.456;19.120;2023-05-10T04:55:24;6.87;;;4.30;;
71566;SDS011;59403;47.456;19.120;2023-05-10T04:57:52;5.80;;;4.22;;
71566;SDS011;59403;47.456;19.120;2023-05-10T05:00:20;6.20;;;4.50;;
71566;SDS011;59403;47.456;19.120;2023-05-10T05:02:47;6.68;;;4.32;;
71566;SDS011;59403;47.456;19.120;2023-05-10T05:05:14;5.65;;;4.30;;
71566;SDS011;59403;47.456;19.120;2023-05-10T05:07:41;6.87;;;4.60;;
71566;SDS011;59403;47.456;19.120;2023-05-10T05:10:09;7.72;;;4.60;;
71566;SDS011;59403;47.456;19.120;2023-05-10T05:12:36;5.85;;;4.28;;
71566;SDS011;59403;47.456;19.120;2023-05-10T05:15:03;7.47;;;4.78;;
71566;SDS011;59403;47.456;19.120;2023-05-10T05:17:30;6.00;;;4.10;;
71566;SDS011;59403;47.456;19.120;2023-05-10T05:19:57;5.75;;;4.25;;
71566;SDS011;59403;47.456;19.120;2023-05-10T05:22:24;8.00;;;4.72;;
71566;SDS011;59403;47.456;19.120;2023-05-10T05:24:52;7.50;;;4.30;;
71566;SDS011;59403;47.456;19.120;2023-05-10T05:27:21;6.03;;;4.28;;
71566;SDS011;59403;47.456;19.120;2023-05-10T05:29:49;12.23;;;4.55;;
71566;SDS011;59403;47.456;19.120;2023-05-10T05:32:16;7.72;;;4.75;;
71566;SDS011;59403;47.456;19.120;2023-05-10T05:34:43;8.43;;;4.55;;
71566;SDS011;59403;47.456;19.120;2023-05-10T05:37:12;6.47;;;4.57;;
71566;SDS011;59403;47.456;19.120;2023-05-10T05:39:39;6.37;;;4.62;;
71566;SDS011;59403;47.456;19.120;2023-05-10T05:42:06;7.47;;;4.68;;
71566;SDS011;59403;47.456;19.120;2023-05-10T05:44:34;6.60;;;4.32;;
71566;SDS011;59403;47.456;19.120;2023-05-10T05:47:01;6.43;;;4.75;;
71566;SDS011;59403;47.456;19.120;2023-05-10T05:49:28;8.30;;;5.87;;
71566;SDS011;59403;47.456;19.120;2023-05-10T05:51:58;9.32;;;4.65;;
71566;SDS011;59403;47.456;19.120;2023-05-10T05:54:25;5.90;;;4.60;;
71566;SDS011;59403;47.456;19.120;2023-05-10T05:56:53;7.32;;;4.70;;
71566;SDS011;59403;47.456;19.120;2023-05-10T05:59:20;6.50;;;4.53;;
71566;SDS011;59403;47.456;19.120;2023-05-10T06:01:49;5.75;;;4.18;;
71566;SDS011;59403;47.456;19.120;2023-05-10T06:04:16;5.85;;;4.30;;
71566;SDS011;59403;47.456;19.120;2023-05-10T06:06:43;7.55;;;4.07;;
71566;SDS011;59403;47.456;19.120;2023-05-10T06:09:10;7.60;;;4.07;;
71566;SDS011;59403;47.456;19.120;2023-05-10T06:11:37;6.00;;;4.60;;
71566;SDS011;59403;47.456;19.120;2023-05-10T06:14:04;6.97;;;4.57;;
71566;SDS011;59403;47.456;19.120;2023-05-10T06:16:32;27.58;;;5.53;;
71566;SDS011;59403;47.456;19.120;2023-05-10T06:19:01;106.78;;;17.85;;
71566;SDS011;59403;47.456;19.120;2023-05-10T06:21:28;9.35;;;4.47;;
71566;SDS011;59403;47.456;19.120;2023-05-10T06:23:55;11.40;;;5.30;;
71566;SDS011;59403;47.456;19.120;2023-05-10T06:26:22;16.67;;;6.95;;
71566;SDS011;59403;47.456;19.120;2023-05-10T06:28:49;32.45;;;8.70;;
71566;SDS011;59403;47.456;19.120;2023-05-10T06:31:16;10.15;;;5.05;;
71566;SDS011;59403;47.456;19.120;2023-05-10T06:33:42;5.32;;;4.80;;
71566;SDS011;59403;47.456;19.120;2023-05-10T06:36:11;6.37;;;4.53;;
71566;SDS011;59403;47.456;19.120;2023-05-10T06:38:38;7.68;;;5.10;;
71566;SDS011;59403;47.456;19.120;2023-05-10T06:41:05;5.70;;;4.65;;
71566;SDS011;59403;47.456;19.120;2023-05-10T06:43:34;8.60;;;5.22;;
71566;SDS011;59403;47.456;19.120;2023-05-10T06:46:04;7.65;;;4.72;;
71566;SDS011;59403;47.456;19.120;2023-05-10T06:48:31;7.05;;;4.70;;
71566;SDS011;59403;47.456;19.120;2023-05-10T06:50:59;10.30;;;5.00;;
71566;SDS011;59403;47.456;19.120;2023-05-10T06:53:27;6.95;;;4.72;;
71566;SDS011;59403;47.456;19.120;2023-05-10T06:55:54;5.93;;;4.70;;
71566;SDS011;59403;47.456;19.120;2023-05-10T06:58:21;6.93;;;5.03;;
71566;SDS011;59403;47.456;19.120;2023-05-10T07:00:48;9.32;;;5.72;;
71566;SDS011;59403;47.456;19.120;2023-05-10T07:03:15;7.18;;;4.60;;
71566;SDS011;59403;47.456;19.120;2023-05-10T07:05:42;6.18;;;4.80;;
71566;SDS011;59403;47.456;19.120;2023-05-10T07:08:13;6.50;;;4.62;;
71566;SDS011;59403;47.456;19.120;2023-05-10T07:10:41;7.80;;;4.65;;
71566;SDS011;59403;47.456;19.120;2023-05-10T07:13:08;6.82;;;4.68;;
71566;SDS011;59403;47.456;19.120;2023-05-10T07:15:35;5.55;;;4.28;;
71566;SDS011;59403;47.456;19.120;2023-05-10T07:18:02;5.78;;;4.90;;
71566;SDS011;59403;47.456;19.120;2023-05-10T07:20:30;7.50;;;4.60;;
71566;SDS011;59403;47.456;19.120;2023-05-10T07:22:58;4.95;;;3.92;;
71566;SDS011;59403;47.456;19.120;2023-05-10T07:25:25;4.32;;;3.72;;
71566;SDS011;59403;47.456;19.120;2023-05-10T07:27:53;8.35;;;4.07;;
71566;SDS011;59403;47.456;19.120;2023-05-10T07:30:20;5.68;;;3.97;;
71566;SDS011;59403;47.456;19.120;2023-05-10T07:32:47;5.72;;;3.92;;
71566;SDS011;59403;47.456;19.120;2023-05-10T07:35:14;5.15;;;4.65;;
71566;SDS011;59403;47.456;19.120;2023-05-10T07:37:41;4.03;;;3.62;;
71566;SDS011;59403;47.456;19.120;2023-05-10T07:40:08;4.93;;;3.97;;
71566;SDS011;59403;47.456;19.120;2023-05-10T07:42:36;6.37;;;3.80;;
71566;SDS011;59403;47.456;19.120;2023-05-10T07:45:05;5.57;;;4.43;;
71566;SDS011;59403;47.456;19.120;2023-05-10T07:47:33;5.65;;;3.70;;
71566;SDS011;59403;47.456;19.120;2023-05-10T07:50:00;7.05;;;3.70;;
71566;SDS011;59403;47.456;19.120;2023-05-10T07:52:27;4.70;;;3.42;;
71566;SDS011;59403;47.456;19.120;2023-05-10T07:54:53;4.43;;;3.10;;
71566;SDS011;59403;47.456;19.120;2023-05-10T07:57:21;8.35;;;3.85;;
71566;SDS011;59403;47.456;19.120;2023-05-10T07:59:49;6.18;;;3.62;;
71566;SDS011;59403;47.456;19.120;2023-05-10T08:02:17;4.35;;;3.42;;
71566;SDS011;59403;47.456;19.120;2023-05-10T08:04:45;5.32;;;3.78;;
71566;SDS011;59403;47.456;19.120;2023-05-10T08:07:12;4.87;;;3.20;;
71566;SDS011;59403;47.456;19.120;2023-05-10T08:09:41;4.60;;;3.60;;
71566;SDS011;59403;47.456;19.120;2023-05-10T08:12:08;5.10;;;3.37;;
71566;SDS011;59403;47.456;19.120;2023-05-10T08:14:36;7.60;;;5.50;;
71566;SDS011;59403;47.456;19.120;2023-05-10T08:17:03;5.62;;;4.62;;
71566;SDS011;59403;47.456;19.120;2023-05-10T08:19:31;5.53;;;3.90;;
71566;SDS011;59403;47.456;19.120;2023-05-10T08:21:58;5.70;;;4.00;;
71566;SDS011;59403;47.456;19.120;2023-05-10T08:24:27;4.95;;;3.58;;
71566;SDS011;59403;47.456;19.120;2023-05-10T08:26:54;4.30;;;3.65;;
71566;SDS011;59403;47.456;19.120;2023-05-10T08:29:21;6.57;;;3.87;;
71566;SDS011;59403;47.456;19.120;2023-05-10T08:31:48;5.03;;;3.92;;
71566;SDS011;59403;47.456;19.120;2023-05-10T08:34:15;6.43;;;4.07;;
71566;SDS011;59403;47.456;19.120;2023-05-10T08:36:43;7.20;;;4.20;;
71566;SDS011;59403;47.456;19.120;2023-05-10T08:39:10;5.95;;;4.25;;
71566;SDS011;59403;47.456;19.120;2023-05-10T08:41:37;8.60;;;3.97;;
71566;SDS011;59403;47.456;19.120;2023-05-10T08:44:06;5.60;;;3.70;;
71566;SDS011;59403;47.456;19.120;2023-05-10T08:46:34;6.03;;;3.92;;
71566;SDS011;59403;47.456;19.120;2023-05-10T08:49:05;6.00;;;3.95;;
71566;SDS011;59403;47.456;19.120;2023-05-10T08:51:35;5.37;;;3.90;;
71566;SDS011;59403;47.456;19.120;2023-05-10T08:54:07;6.50;;;3.78;;
71566;SDS011;59403;47.456;19.120;2023-05-10T08:56:35;4.18;;;3.58;;
71566;SDS011;59403;47.456;19.120;2023-05-10T08:59:02;3.62;;;3.10;;
71566;SDS011;59403;47.456;19.120;2023-05-10T09:01:29;5.43;;;3.20;;
71566;SDS011;59403;47.456;19.120;2023-05-10T09:03:58;4.53;;;3.33;;
71566;SDS011;59403;47.456;19.120;2023-05-10T09:06:26;4.10;;;3.70;;
71566;SDS011;59403;47.456;19.120;2023-05-10T09:08:54;6.28;;;4.10;;
71566;SDS011;59403;47.456;19.120;2023-05-10T09:11:22;6.37;;;3.85;;
71566;SDS011;59403;47.456;19.120;2023-05-10T09:13:50;5.20;;;3.80;;
71566;SDS011;59403;47.456;19.120;2023-05-10T09:16:18;5.12;;;3.58;;
71566;SDS011;59403;47.456;19.120;2023-05-10T09:18:45;5.75;;;3.75;;
71566;SDS011;59403;47.456;19.120;2023-05-10T09:21:12;6.60;;;3.72;;
71566;SDS011;59403;47.456;19.120;2023-05-10T09:23:42;6.50;;;4.00;;
71566;SDS011;59403;47.456;19.120;2023-05-10T09:26:09;4.90;;;4.00;;
71566;SDS011;59403;47.456;19.120;2023-05-10T09:28:50;8.48;;;3.62;;
71566;SDS011;59403;47.456;19.120;2023-05-10T09:31:18;5.80;;;3.70;;
71566;SDS011;59403;47.456;19.120;2023-05-10T09:33:45;7.47;;;3.95;;
71566;SDS011;59403;47.456;19.120;2023-05-10T09:36:13;5.12;;;3.78;;
71566;SDS011;59403;47.456;19.120;2023-05-10T09:38:47;4.60;;;3.70;;
71566;SDS011;59403;47.456;19.120;2023-05-10T09:41:17;5.50;;;3.70;;
71566;SDS011;59403;47.456;19.120;2023-05-10T09:43:46;5.00;;;3.90;;
71566;SDS011;59403;47.456;19.120;2023-05-10T09:46:13;7.90;;;4.05;;
71566;SDS011;59403;47.456;19.120;2023-05-10T09:48:41;6.32;;;3.53;;
71566;SDS011;59403;47.456;19.120;2023-05-10T09:51:09;6.60;;;3.30;;
71566;SDS011;59403;47.456;19.120;2023-05-10T09:53:36;4.90;;;3.45;;
71566;SDS011;59403;47.456;19.120;2023-05-10T09:56:03;5.45;;;3.30;;
71566;SDS011;59403;47.456;19.120;2023-05-10T09:58:31;4.32;;;3.30;;
71566;SDS011;59403;47.456;19.120;2023-05-10T10:01:04;4.65;;;2.83;;
71566;SDS011;59403;47.456;19.120;2023-05-10T10:03:40;6.60;;;3.17;;
71566;SDS011;59403;47.456;19.120;2023-05-10T10:06:08;6.43;;;2.70;;
71566;SDS011;59403;47.456;19.120;2023-05-10T10:08:36;4.85;;;3.10;;
71566;SDS011;59403;47.456;19.120;2023-05-10T10:11:03;4.85;;;3.28;;
71566;SDS011;59403;47.456;19.120;2023-05-10T10:13:30;3.25;;;2.65;;
71566;SDS011;59403;47.456;19.120;2023-05-10T10:15:58;4.20;;;2.73;;
71566;SDS011;59403;47.456;19.120;2023-05-10T10:18:26;4.18;;;3.12;;
71566;SDS011;59403;47.456;19.120;2023-05-10T10:20:54;5.30;;;3.20;;
71566;SDS011;59403;47.456;19.120;2023-05-10T10:23:22;4.05;;;3.30;;
71566;SDS011;59403;47.456;19.120;2023-05-10T10:25:49;3.47;;;2.60;;
71566;SDS011;59403;47.456;19.120;2023-05-10T10:28:20;2.50;;;2.20;;
71566;SDS011;59403;47.456;19.120;2023-05-10T10:30:52;3.50;;;2.47;;
71566;SDS011;59403;47.456;19.120;2023-05-10T10:36:26;3.60;;;2.55;;
71566;SDS011;59403;47.456;19.120;2023-05-10T10:38:58;3.83;;;2.97;;
71566;SDS011;59403;47.456;19.120;2023-05-10T10:41:27;2.85;;;2.22;;
71566;SDS011;59403;47.456;19.120;2023-05-10T10:47:00;4.55;;;2.80;;
71566;SDS011;59403;47.456;19.120;2023-05-10T10:49:32;3.33;;;2.42;;
71566;SDS011;59403;47.456;19.120;2023-05-10T10:55:01;8.25;;;2.30;;
71566;SDS011;59403;47.456;19.120;2023-05-10T10:57:35;3.45;;;2.17;;
71566;SDS011;59403;47.456;19.120;2023-05-10T11:00:19;4.03;;;2.20;;
71566;SDS011;59403;47.456;19.120;2023-05-10T11:02:52;3.12;;;2.42;;
71566;SDS011;59403;47.456;19.120;2023-05-10T11:05:24;3.20;;;2.77;;
71566;SDS011;59403;47.456;19.120;2023-05-10T11:08:14;4.97;;;2.42;;
71566;SDS011;59403;47.456;19.120;2023-05-10T11:10:50;2.80;;;2.40;;
71566;SDS011;59403;47.456;19.120;2023-05-10T11:13:30;3.20;;;2.20;;
71566;SDS011;59403;47.456;19.120;2023-05-10T11:15:58;2.70;;;2.12;;
71566;SDS011;59403;47.456;19.120;2023-05-10T11:18:26;2.90;;;2.60;;
71566;SDS011;59403;47.456;19.120;2023-05-10T11:20:59;3.95;;;2.35;;
71566;SDS011;59403;47.456;19.120;2023-05-10T11:23:30;3.50;;;2.20;;
71566;SDS011;59403;47.456;19.120;2023-05-10T11:25:58;4.03;;;1.90;;
71566;SDS011;59403;47.456;19.120;2023-05-10T11:28:26;3.08;;;2.12;;
71566;SDS011;59403;47.456;19.120;2023-05-10T11:30:54;2.50;;;1.87;;
71566;SDS011;59403;47.456;19.120;2023-05-10T11:33:21;2.65;;;2.00;;
71566;SDS011;59403;47.456;19.120;2023-05-10T11:35:48;3.12;;;1.70;;
71566;SDS011;59403;47.456;19.120;2023-05-10T11:38:16;3.15;;;2.00;;
71566;SDS011;59403;47.456;19.120;2023-05-10T11:40:43;5.70;;;1.87;;
71566;SDS011;59403;47.456;19.120;2023-05-10T11:43:10;2.93;;;2.33;;
71566;SDS011;59403;47.456;19.120;2023-05-10T11:45:37;4.18;;;1.85;;
71566;SDS011;59403;47.456;19.120;2023-05-10T11:48:06;4.10;;;2.03;;
71566;SDS011;59403;47.456;19.120;2023-05-10T11:50:33;3.53;;;2.12;;
71566;SDS011;59403;47.456;19.120;2023-05-10T11:53:00;2.65;;;2.00;;
71566;SDS011;59403;47.456;19.120;2023-05-10T11:55:29;5.73;;;2.30;;
71566;SDS011;59403;47.456;19.120;2023-05-10T11:58:00;2.80;;;2.10;;
71566;SDS011;59403;47.456;19.120;2023-05-10T12:00:28;2.35;;;1.67;;
71566;SDS011;59403;47.456;19.120;2023-05-10T12:02:56;3.17;;;1.87;;
71566;SDS011;59403;47.456;19.120;2023-05-10T12:05:23;2.83;;;2.10;;
71566;SDS011;59403;47.456;19.120;2023-05-10T12:07:51;3.10;;;2.20;;
71566;SDS011;59403;47.456;19.120;2023-05-10T12:10:17;3.55;;;1.95;;
71566;SDS011;59403;47.456;19.120;2023-05-10T12:12:53;2.60;;;2.08;;
71566;SDS011;59403;47.456;19.120;2023-05-10T12:15:21;3.35;;;2.97;;
71566;SDS011;59403;47.456;19.120;2023-05-10T12:17:48;3.28;;;2.03;;
71566;SDS011;59403;47.456;19.120;2023-05-10T12:20:17;2.87;;;2.13;;
71566;SDS011;59403;47.456;19.120;2023-05-10T12:22:49;4.82;;;2.50;;
71566;SDS011;59403;47.456;19.120;2023-05-10T12:25:18;2.62;;;2.17;;
71566;SDS011;59403;47.456;19.120;2023-05-10T12:27:50;2.67;;;2.00;;
71566;SDS011;59403;47.456;19.120;2023-05-10T12:30:23;3.90;;;1.90;;
71566;SDS011;59403;47.456;19.120;2023-05-10T12:32:50;4.83;;;1.70;;
71566;SDS011;59403;47.456;19.120;2023-05-10T12:35:17;2.25;;;1.50;;
71566;SDS011;59403;47.456;19.120;2023-05-10T12:37:47;2.47;;;1.70;;
71566;SDS011;59403;47.456;19.120;2023-05-10T12:40:14;3.70;;;2.20;;
71566;SDS011;59403;47.456;19.120;2023-05-10T12:42:41;7.05;;;2.28;;
71566;SDS011;59403;47.456;19.120;2023-05-10T12:45:10;2.17;;;1.63;;
71566;SDS011;59403;47.456;19.120;2023-05-10T12:47:41;3.10;;;1.52;;
71566;SDS011;59403;47.456;19.120;2023-05-10T12:50:08;4.15;;;1.80;;
71566;SDS011;59403;47.456;19.120;2023-05-10T12:52:36;3.17;;;1.77;;
71566;SDS011;59403;47.456;19.120;2023-05-10T12:55:03;3.05;;;1.92;;
71566;SDS011;59403;47.456;19.120;2023-05-10T12:57:30;4.03;;;2.07;;
71566;SDS011;59403;47.456;19.120;2023-05-10T12:59:57;6.35;;;1.83;;
71566;SDS011;59403;47.456;19.120;2023-05-10T13:02:24;3.80;;;1.75;;
71566;SDS011;59403;47.456;19.120;2023-05-10T13:04:52;6.50;;;1.85;;
71566;SDS011;59403;47.456;19.120;2023-05-10T13:07:19;4.55;;;1.77;;
71566;SDS011;59403;47.456;19.120;2023-05-10T13:09:45;2.27;;;1.20;;
71566;SDS011;59403;47.456;19.120;2023-05-10T13:12:12;2.85;;;1.50;;
71566;SDS011;59403;47.456;19.120;2023-05-10T13:14:39;1.98;;;1.20;;
71566;SDS011;59403;47.456;19.120;2023-05-10T13:17:06;4.10;;;1.50;;
71566;SDS011;59403;47.456;19.120;2023-05-10T13:19:33;1.87;;;1.67;;
71566;SDS011;59403;47.456;19.120;2023-05-10T13:22:02;2.00;;;1.70;;
71566;SDS011;59403;47.456;19.120;2023-05-10T13:24:29;2.15;;;1.48;;
71566;SDS011;59403;47.456;19.120;2023-05-10T13:26:56;3.65;;;1.35;;
71566;SDS011;59403;47.456;19.120;2023-05-10T13:29:23;5.05;;;1.50;;
71566;SDS011;59403;47.456;19.120;2023-05-10T13:31:50;3.87;;;1.90;;
71566;SDS011;59403;47.456;19.120;2023-05-10T13:34:17;3.70;;;2.00;;
71566;SDS011;59403;47.456;19.120;2023-05-10T13:36:45;3.55;;;1.35;;
71566;SDS011;59403;47.456;19.120;2023-05-10T13:39:15;3.78;;;1.50;;
71566;SDS011;59403;47.456;19.120;2023-05-10T13:41:46;1.95;;;1.20;;
71566;SDS011;59403;47.456;19.120;2023-05-10T13:44:13;3.05;;;1.17;;
71566;SDS011;59403;47.456;19.120;2023-05-10T13:46:41;3.67;;;1.50;;
71566;SDS011;59403;47.456;19.120;2023-05-10T13:49:09;2.80;;;1.20;;
71566;SDS011;59403;47.456;19.120;2023-05-10T13:51:36;2.85;;;1.60;;
71566;SDS011;59403;47.456;19.120;2023-05-10T13:54:03;2.40;;;1.50;;
71566;SDS011;59403;47.456;19.120;2023-05-10T13:56:31;2.50;;;1.50;;
71566;SDS011;59403;47.456;19.120;2023-05-10T13:58:58;1.53;;;1.03;;
71566;SDS011;59403;47.456;19.120;2023-05-10T14:01:25;3.58;;;1.37;;
71566;SDS011;59403;47.456;19.120;2023-05-10T14:03:53;3.33;;;1.05;;
71566;SDS011;59403;47.456;19.120;2023-05-10T14:06:20;3.60;;;1.45;;
71566;SDS011;59403;47.456;19.120;2023-05-10T14:08:47;2.60;;;1.30;;
71566;SDS011;59403;47.456;19.120;2023-05-10T14:11:13;2.17;;;1.53;;
71566;SDS011;59403;47.456;19.120;2023-05-10T14:13:42;1.73;;;1.25;;
71566;SDS011;59403;47.456;19.120;2023-05-10T14:16:09;3.17;;;0.90;;
71566;SDS011;59403;47.456;19.120;2023-05-10T14:18:36;3.53;;;1.27;;
71566;SDS011;59403;47.456;19.120;2023-05-10T14:21:03;6.62;;;1.67;;
71566;SDS011;59403;47.456;19.120;2023-05-10T14:23:30;3.70;;;1.40;;
71566;SDS011;59403;47.456;19.120;2023-05-10T14:25:57;2.40;;;1.35;;
71566;SDS011;59403;47.456;19.120;2023-05-10T14:28:24;3.60;;;1.65;;
71566;SDS011;59403;47.456;19.120;2023-05-10T14:30:52;5.20;;;2.20;;
71566;SDS011;59403;47.456;19.120;2023-05-10T14:33:20;3.45;;;1.45;;
71566;SDS011;59403;47.456;19.120;2023-05-10T14:38:15;2.97;;;1.20;;
71566;SDS011;59403;47.456;19.120;2023-05-10T14:40:42;3.83;;;1.10;;
71566;SDS011;59403;47.456;19.120;2023-05-10T14:43:09;4.10;;;1.25;;
71566;SDS011;59403;47.456;19.120;2023-05-10T14:45:35;2.15;;;1.10;;
71566;SDS011;59403;47.456;19.120;2023-05-10T14:48:04;2.33;;;1.23;;
71566;SDS011;59403;47.456;19.120;2023-05-10T14:50:33;3.08;;;1.40;;
71566;SDS011;59403;47.456;19.120;2023-05-10T14:53:00;3.72;;;1.58;;
71566;SDS011;59403;47.456;19.120;2023-05-10T14:55:27;1.48;;;1.37;;
71566;SDS011;59403;47.456;19.120;2023-05-10T14:57:54;2.00;;;1.20;;
71566;SDS011;59403;47.456;19.120;2023-05-10T15:00:21;2.67;;;1.03;;
71566;SDS011;59403;47.456;19.120;2023-05-10T15:02:48;2.92;;;1.73;;